Time;durP1;ratioP1;P1;durP2;ratioP2;P2;SDS_P1;SDS_P2;PMS_P1;PMS_P2;Temp;Humidity;BMP_temperature;BMP_pressure;BME280_temperature;BME280_humidity;BME280_pressure;Samples;Min_cycle;Max_cycle;Signal;HPM_P1;HPM_P2
2022/11/19 00:01:16;;;;;;;2.55;1.83;;;12.90;65.50;;;;;;5023422;28;20014;-72
2022/11/19 00:03:44;;;;;;;1.50;1.40;;;12.90;65.60;;;;;;5023451;28;20037;-73
2022/11/19 00:06:16;;;;;;;1.77;1.55;;;12.90;65.70;;;;;;5023385;28;20018;-74
2022/11/19 00:08:42;;;;;;;2.47;1.90;;;12.90;65.60;;;;;;5023393;28;20022;-73
2022/11/19 00:11:12;;;;;;;1.70;1.60;;;12.90;65.70;;;;;;5023379;28;20040;-73
2022/11/19 00:13:39;;;;;;;2.30;1.90;;;12.90;65.60;;;;;;5023825;28;20022;-73
2022/11/19 00:16:08;;;;;;;2.20;1.85;;;12.90;65.60;;;;;;5026997;28;20019;-73
2022/11/19 00:18:34;;;;;;;2.28;1.73;;;12.90;65.60;;;;;;5026942;28;20025;-73
2022/11/19 00:21:11;;;;;;;1.70;1.60;;;12.90;65.60;;;;;;5026937;28;20045;-73
2022/11/19 00:23:37;;;;;;;2.40;2.00;;;12.90;65.60;;;;;;5026934;28;20022;-73
2022/11/19 00:26:13;;;;;;;1.98;1.77;;;12.90;65.60;;;;;;5042084;28;20205;-74
2022/11/19 00:28:40;;;;;;;1.98;1.77;;;12.90;65.60;;;;;;5026860;28;20064;-73
2022/11/19 00:31:11;;;;;;;2.13;1.92;;;12.90;65.60;;;;;;5026858;28;20017;-73
2022/11/19 00:33:39;;;;;;;2.25;1.95;;;12.90;65.60;;;;;;5025573;28;20014;-73
2022/11/19 00:36:07;;;;;;;2.50;2.30;;;12.80;65.60;;;;;;5026692;28;20018;-73
2022/11/19 00:38:34;;;;;;;2.03;1.80;;;12.80;65.60;;;;;;5026628;28;20014;-73
2022/11/19 00:41:00;;;;;;;1.60;1.50;;;12.80;65.60;;;;;;5026378;28;20287;-72
2022/11/19 00:46:10;;;;;;;2.13;1.75;;;12.80;65.50;;;;;;5026464;28;20013;-73
2022/11/19 00:48:38;;;;;;;3.10;2.20;;;12.80;65.60;;;;;;5026440;28;20026;-73
2022/11/19 00:51:04;;;;;;;2.05;1.77;;;12.90;65.60;;;;;;5026341;28;20033;-73
2022/11/19 00:53:30;;;;;;;1.90;1.70;;;12.80;65.50;;;;;;5026321;28;20084;-73
2022/11/19 00:56:03;;;;;;;2.13;1.92;;;12.80;65.60;;;;;;5026253;28;20263;-74
2022/11/19 00:58:29;;;;;;;2.10;1.80;;;12.80;65.50;;;;;;5026248;28;20040;-74
2022/11/19 01:00:56;;;;;;;1.77;1.67;;;12.80;65.60;;;;;;5026231;28;20317;-76
2022/11/19 01:03:23;;;;;;;1.88;1.77;;;12.80;65.60;;;;;;5024987;28;20056;-74
2022/11/19 01:05:49;;;;;;;2.45;1.63;;;12.80;65.60;;;;;;5026120;28;20182;-74
2022/11/19 01:08:15;;;;;;;1.80;1.70;;;12.80;65.60;;;;;;5026017;28;20028;-74
2022/11/19 01:10:42;;;;;;;2.17;1.98;;;12.80;65.60;;;;;;5026078;28;20022;-73
2022/11/19 01:15:52;;;;;;;2.65;2.22;;;12.80;65.60;;;;;;5025925;28;20013;-73
2022/11/19 01:18:18;;;;;;;2.10;1.85;;;12.80;65.60;;;;;;5025800;28;20213;-73
2022/11/19 01:20:45;;;;;;;2.40;2.13;;;12.80;65.60;;;;;;5025777;28;20017;-72
2022/11/19 01:23:11;;;;;;;2.78;1.98;;;12.80;65.60;;;;;;5025743;28;20029;-73
2022/11/19 01:25:37;;;;;;;1.85;1.75;;;12.80;65.60;;;;;;5025215;28;20022;-73
2022/11/19 01:28:03;;;;;;;2.20;2.00;;;12.80;65.60;;;;;;5025569;28;20052;-73
2022/11/19 01:30:30;;;;;;;2.10;1.92;;;12.80;65.60;;;;;;5025602;28;20025;-75
2022/11/19 01:32:56;;;;;;;2.00;1.65;;;12.80;65.60;;;;;;5025874;28;20045;-73
2022/11/19 01:35:22;;;;;;;2.47;1.90;;;12.80;65.60;;;;;;5025517;28;20205;-73
2022/11/19 01:37:51;;;;;;;2.40;2.20;;;12.80;65.70;;;;;;5025508;28;20032;-74
2022/11/19 01:40:17;;;;;;;1.80;1.70;;;12.80;65.60;;;;;;5025246;28;20053;-73
2022/11/19 01:42:49;;;;;;;2.20;1.95;;;12.80;65.60;;;;;;5025394;28;20337;-72
2022/11/19 01:45:32;;;;;;;2.20;2.00;;;12.80;65.70;;;;;;5025352;28;20026;-73
2022/11/19 01:48:21;;;;;;;1.95;1.85;;;12.80;65.70;;;;;;5025148;28;20030;-73
2022/11/19 01:51:01;;;;;;;1.77;1.63;;;12.70;65.60;;;;;;5024193;28;20054;-73
2022/11/19 01:53:34;;;;;;;2.63;2.42;;;12.80;65.60;;;;;;5025269;28;20310;-74
2022/11/19 01:56:04;;;;;;;1.90;1.75;;;12.80;65.60;;;;;;5025142;28;20029;-74
2022/11/19 01:58:35;;;;;;;2.92;2.35;;;12.80;65.60;;;;;;5025031;28;20286;-72
2022/11/19 02:01:01;;;;;;;2.83;2.42;;;12.70;65.70;;;;;;5040456;28;20085;-73
2022/11/19 02:03:31;;;;;;;2.30;2.08;;;12.70;65.60;;;;;;5024983;28;20018;-73
2022/11/19 02:05:58;;;;;;;2.80;1.92;;;12.70;65.60;;;;;;5024929;28;20018;-73
2022/11/19 02:08:39;;;;;;;2.63;2.08;;;12.80;65.60;;;;;;5024851;28;20022;-73
2022/11/19 02:11:05;;;;;;;2.53;2.17;;;12.80;65.60;;;;;;5024946;28;20014;-73
2022/11/19 02:13:40;;;;;;;2.15;1.83;;;12.80;65.60;;;;;;5024777;28;20413;-73
2022/11/19 02:16:31;;;;;;;2.78;2.33;;;12.70;65.60;;;;;;5024786;28;20028;-73
2022/11/19 02:19:21;;;;;;;2.13;1.73;;;12.70;65.70;;;;;;5024720;28;20313;-74
2022/11/19 02:21:47;;;;;;;2.80;2.17;;;12.70;65.60;;;;;;5024708;28;20026;-73
2022/11/19 02:24:52;;;;;;;2.17;1.70;;;12.70;65.60;;;;;;5024662;28;20327;-71
2022/11/19 02:27:55;;;;;;;2.42;2.15;;;12.70;65.60;;;;;;5024530;28;20055;-73
2022/11/19 02:30:21;;;;;;;2.53;1.92;;;12.70;65.70;;;;;;5024058;28;20030;-73
2022/11/19 02:33:07;;;;;;;2.78;2.17;;;12.70;65.50;;;;;;5024495;28;20029;-73
2022/11/19 02:35:48;;;;;;;2.00;1.80;;;12.70;65.60;;;;;;5024491;28;20305;-73
2022/11/19 02:38:32;;;;;;;1.92;1.80;;;12.70;65.50;;;;;;5023649;28;20052;-73
2022/11/19 02:46:58;;;;;;;2.63;2.28;;;12.70;65.60;;;;;;5024209;28;20056;-73
2022/11/19 02:49:28;;;;;;;2.42;2.17;;;12.70;65.70;;;;;;5024284;28;20076;-73
2022/11/19 02:51:55;;;;;;;2.78;2.17;;;12.70;65.60;;;;;;5024460;28;20017;-74
2022/11/19 02:54:20;;;;;;;2.47;2.22;;;12.70;65.60;;;;;;5024128;28;20041;-73
2022/11/19 02:56:52;;;;;;;3.13;2.55;;;12.70;65.60;;;;;;5024155;28;20248;-73
2022/11/19 03:05:28;;;;;;;2.60;2.17;;;12.70;65.70;;;;;;5023999;28;20025;-74
2022/11/19 03:07:54;;;;;;;2.30;2.05;;;12.70;65.70;;;;;;5023836;28;20201;-74
2022/11/19 03:10:24;;;;;;;2.08;1.90;;;12.70;65.70;;;;;;5023950;28;20332;-72
2022/11/19 03:12:55;;;;;;;3.05;2.35;;;12.60;65.60;;;;;;5023925;28;20010;-73
2022/11/19 03:18:53;;;;;;;2.17;1.92;;;12.70;65.70;;;;;;5023913;28;20024;-71
2022/11/19 03:21:19;;;;;;;3.20;2.90;;;12.70;65.70;;;;;;5023812;28;20037;-73
2022/11/19 03:24:07;;;;;;;2.40;2.20;;;12.70;65.70;;;;;;5023733;28;20025;-73
2022/11/19 03:26:39;;;;;;;2.08;1.88;;;12.60;66.20;;;;;;5022584;28;20096;-72
2022/11/19 03:29:09;;;;;;;2.10;1.90;;;12.60;65.60;;;;;;5023718;28;20019;-74
2022/11/19 03:31:37;;;;;;;2.58;2.13;;;12.60;65.70;;;;;;5039037;28;20026;-73
2022/11/19 03:34:09;;;;;;;2.40;2.00;;;12.60;65.70;;;;;;5023702;28;20013;-73
2022/11/19 03:36:39;;;;;;;2.85;2.05;;;12.60;65.70;;;;;;5023659;28;20250;-73
2022/11/19 03:39:13;;;;;;;3.03;2.50;;;12.60;65.70;;;;;;5023611;28;20014;-73
2022/11/19 03:41:41;;;;;;;3.30;2.60;;;12.60;65.60;;;;;;5023507;28;20057;-73
2022/11/19 03:44:23;;;;;;;2.50;2.30;;;12.60;65.60;;;;;;5023600;28;20026;-73
2022/11/19 03:46:53;;;;;;;2.58;2.28;;;12.60;65.70;;;;;;5023468;28;20109;-74
2022/11/19 03:49:25;;;;;;;2.75;2.28;;;12.60;65.60;;;;;;5025177;28;20017;-73
2022/11/19 03:51:58;;;;;;;2.40;2.17;;;12.60;65.70;;;;;;5027739;28;20018;-73
2022/11/19 03:54:24;;;;;;;3.35;2.38;;;12.60;65.70;;;;;;5027464;28;20018;-73
2022/11/19 03:56:51;;;;;;;3.35;2.65;;;12.60;65.60;;;;;;5027388;28;20048;-73
2022/11/19 03:59:17;;;;;;;2.28;2.03;;;12.60;65.70;;;;;;5027305;28;20068;-73
2022/11/19 04:01:46;;;;;;;2.80;2.40;;;12.60;65.70;;;;;;5027353;28;20022;-73
2022/11/19 04:06:56;;;;;;;2.20;2.00;;;12.60;65.60;;;;;;5027180;28;20025;-72
2022/11/19 04:09:22;;;;;;;2.97;2.20;;;12.60;65.70;;;;;;5027105;28;20205;-74
2022/11/19 04:11:47;;;;;;;2.70;2.08;;;12.60;65.60;;;;;;5027188;28;20093;-72
2022/11/19 04:14:13;;;;;;;2.28;2.05;;;12.60;65.60;;;;;;5027113;28;20081;-72
2022/11/19 04:16:39;;;;;;;2.60;2.10;;;12.60;65.60;;;;;;5027044;28;20022;-73
2022/11/19 04:19:05;;;;;;;3.08;2.28;;;12.60;65.60;;;;;;5026979;28;20021;-73
2022/11/19 04:21:31;;;;;;;2.38;2.17;;;12.60;65.60;;;;;;5026944;28;20029;-73
2022/11/19 04:23:56;;;;;;;2.20;2.00;;;12.60;65.70;;;;;;5026871;28;20117;-73
2022/11/19 04:26:22;;;;;;;2.35;2.15;;;12.60;65.60;;;;;;5026804;28;20061;-73
2022/11/19 04:28:48;;;;;;;2.58;2.35;;;12.60;65.60;;;;;;5026794;28;20022;-73
2022/11/19 04:31:14;;;;;;;2.20;2.00;;;12.60;65.60;;;;;;5026811;28;20305;-73
2022/11/19 04:33:40;;;;;;;2.47;2.13;;;12.60;65.70;;;;;;5025555;28;20026;-74
2022/11/19 04:36:06;;;;;;;2.30;1.92;;;12.50;65.60;;;;;;5026667;28;20041;-75
2022/11/19 04:38:33;;;;;;;2.22;2.03;;;12.60;65.60;;;;;;5026614;28;20026;-74
2022/11/19 04:40:59;;;;;;;2.15;1.95;;;12.60;65.70;;;;;;5041781;28;20041;-73
2022/11/19 04:43:25;;;;;;;2.80;2.60;;;12.60;65.70;;;;;;5026552;28;20018;-73
2022/11/19 04:45:51;;;;;;;3.15;2.72;;;12.60;65.50;;;;;;5026591;28;20262;-74
2022/11/19 04:48:17;;;;;;;2.80;2.00;;;12.70;65.50;;;;;;5026418;28;20214;-72
2022/11/19 04:50:43;;;;;;;2.45;2.10;;;12.70;65.40;;;;;;5026434;28;20045;-73
2022/11/19 04:53:08;;;;;;;3.38;2.22;;;12.60;65.40;;;;;;5026354;28;20022;-72
2022/11/19 04:55:34;;;;;;;2.88;2.33;;;12.70;65.40;;;;;;5026361;28;20360;-74
2022/11/19 04:58:00;;;;;;;2.72;2.15;;;12.70;65.40;;;;;;5026321;28;20052;-74
2022/11/19 05:00:26;;;;;;;3.15;2.42;;;12.60;65.40;;;;;;5024123;28;20336;-74
2022/11/19 05:02:52;;;;;;;2.28;2.08;;;12.70;65.50;;;;;;5026205;28;20025;-72
2022/11/19 05:05:17;;;;;;;2.53;2.13;;;12.60;65.40;;;;;;5026137;28;20237;-73
2022/11/19 05:07:43;;;;;;;2.50;2.25;;;12.60;65.40;;;;;;5025992;28;20037;-72
2022/11/19 05:10:09;;;;;;;3.53;2.85;;;12.70;65.40;;;;;;5026066;28;20014;-73
2022/11/19 05:12:35;;;;;;;2.88;2.28;;;12.70;65.40;;;;;;5025987;28;20018;-73
2022/11/19 05:15:00;;;;;;;2.47;2.28;;;12.60;65.30;;;;;;5025961;28;20032;-73
2022/11/19 05:17:26;;;;;;;3.63;2.65;;;12.60;65.40;;;;;;5025928;28;20332;-73
2022/11/19 05:19:52;;;;;;;2.78;2.58;;;12.60;65.40;;;;;;5025921;28;20214;-73
2022/11/19 05:22:18;;;;;;;2.60;2.40;;;12.60;65.50;;;;;;5025815;28;20022;-74
2022/11/19 05:24:43;;;;;;;2.53;2.05;;;12.60;65.50;;;;;;5025816;28;20033;-73
2022/11/19 05:27:09;;;;;;;2.42;2.22;;;12.60;65.50;;;;;;5025621;28;20021;-73
2022/11/19 05:29:35;;;;;;;2.42;2.10;;;12.60;65.50;;;;;;5025705;28;20018;-72
2022/11/19 05:32:01;;;;;;;2.80;2.30;;;12.60;65.50;;;;;;5025646;28;20048;-73
2022/11/19 05:34:27;;;;;;;2.00;1.85;;;12.60;65.40;;;;;;5025579;28;20082;-73
2022/11/19 05:36:52;;;;;;;2.78;2.30;;;12.60;66.20;;;;;;5025555;28;20046;-74
2022/11/19 05:39:18;;;;;;;2.97;2.40;;;12.60;65.60;;;;;;5025517;28;20048;-72
2022/11/19 05:41:44;;;;;;;2.47;1.98;;;12.60;65.50;;;;;;5040521;28;20053;-73
2022/11/19 05:44:10;;;;;;;2.13;1.92;;;12.60;65.50;;;;;;5025389;28;20025;-74
2022/11/19 05:46:36;;;;;;;2.58;2.35;;;12.60;65.60;;;;;;5025277;28;20067;-73
2022/11/19 05:49:01;;;;;;;3.13;2.20;;;12.50;65.60;;;;;;5025308;28;20022;-73
2022/11/19 05:51:27;;;;;;;2.80;2.13;;;12.60;65.60;;;;;;5025293;28;20056;-73
2022/11/19 05:53:53;;;;;;;2.85;2.50;;;12.50;65.60;;;;;;5025243;28;20024;-73
2022/11/19 05:56:19;;;;;;;3.33;2.83;;;12.50;65.60;;;;;;5025184;28;20013;-73
2022/11/19 05:58:45;;;;;;;2.50;2.22;;;12.50;65.60;;;;;;5025102;28;20077;-73
2022/11/19 06:01:12;;;;;;;2.25;2.05;;;12.50;65.50;;;;;;5025129;28;20332;-73
2022/11/19 06:03:37;;;;;;;1.83;1.73;;;12.50;65.50;;;;;;5025131;28;20310;-73
2022/11/19 06:06:03;;;;;;;2.40;2.17;;;12.50;65.50;;;;;;5025015;28;20018;-74
2022/11/19 06:08:29;;;;;;;2.58;2.22;;;12.50;65.50;;;;;;5024897;28;20041;-74
2022/11/19 06:10:55;;;;;;;3.05;2.33;;;12.50;65.50;;;;;;5025027;28;20014;-72
2022/11/19 06:13:21;;;;;;;2.42;2.20;;;12.60;65.50;;;;;;5024827;28;20064;-72
2022/11/19 06:15:47;;;;;;;3.08;2.40;;;12.50;65.50;;;;;;5024940;28;20022;-72
2022/11/19 06:18:12;;;;;;;2.97;2.35;;;12.50;65.50;;;;;;5024802;28;20025;-73
2022/11/19 06:20:38;;;;;;;2.83;2.20;;;12.60;65.50;;;;;;5024753;28;20024;-72
2022/11/19 06:23:04;;;;;;;3.22;2.60;;;12.60;65.40;;;;;;5040027;28;20026;-72
2022/11/19 06:25:30;;;;;;;2.55;2.22;;;12.60;65.40;;;;;;5024646;28;20022;-72
2022/11/19 06:27:56;;;;;;;2.25;1.95;;;12.60;65.30;;;;;;5024535;28;20032;-72
2022/11/19 06:30:21;;;;;;;2.60;2.30;;;12.60;65.20;;;;;;5024563;28;20017;-72
2022/11/19 06:32:47;;;;;;;3.45;2.75;;;12.60;65.20;;;;;;5024565;28;20288;-73
2022/11/19 06:35:13;;;;;;;2.80;2.47;;;12.60;65.20;;;;;;5039807;28;20040;-73
2022/11/19 06:37:39;;;;;;;2.75;2.25;;;12.60;65.20;;;;;;5024451;28;20021;-73
2022/11/19 06:40:05;;;;;;;4.07;2.63;;;12.60;65.10;;;;;;5024429;28;20194;-73
2022/11/19 06:42:37;;;;;;;2.35;2.15;;;12.60;65.20;;;;;;5024102;28;20041;-71
2022/11/19 06:45:13;;;;;;;2.72;2.22;;;12.60;65.30;;;;;;5024574;28;20097;-73
2022/11/19 06:47:40;;;;;;;3.00;2.20;;;12.60;65.30;;;;;;5024222;28;20030;-72
2022/11/19 06:50:08;;;;;;;2.80;2.55;;;12.60;65.30;;;;;;5024204;28;20021;-70
2022/11/19 06:52:34;;;;;;;2.50;2.30;;;12.60;65.30;;;;;;5024215;28;20017;-72
2022/11/19 06:55:01;;;;;;;3.53;2.58;;;12.60;65.30;;;;;;5024125;28;20076;-73
2022/11/19 06:57:26;;;;;;;3.28;2.55;;;12.60;65.20;;;;;;5024151;28;20022;-72
2022/11/19 06:59:52;;;;;;;2.63;2.22;;;12.60;65.20;;;;;;5024133;28;20336;-73
2022/11/19 07:02:18;;;;;;;2.58;2.15;;;12.60;65.30;;;;;;5024038;28;20076;-73
2022/11/19 07:04:44;;;;;;;2.90;2.47;;;12.60;65.20;;;;;;5024071;28;20041;-73
2022/11/19 07:07:10;;;;;;;3.40;2.42;;;12.60;65.30;;;;;;5023933;28;20017;-72
2022/11/19 07:09:35;;;;;;;2.63;2.20;;;12.60;65.20;;;;;;5023933;28;20021;-72
2022/11/19 07:12:01;;;;;;;2.95;2.40;;;12.60;65.10;;;;;;5023983;28;20064;-73
2022/11/19 07:14:27;;;;;;;2.83;2.28;;;12.60;65.20;;;;;;5023918;28;20087;-72
2022/11/19 07:16:54;;;;;;;3.20;2.88;;;12.60;65.30;;;;;;5023956;28;20209;-71
2022/11/19 07:19:20;;;;;;;2.97;2.65;;;12.60;65.20;;;;;;5023885;28;20113;-72
2022/11/19 07:21:46;;;;;;;2.55;2.35;;;12.60;65.10;;;;;;5023814;28;20022;-72
2022/11/19 07:24:15;;;;;;;3.75;2.35;;;12.60;65.10;;;;;;5023301;28;20053;-72
2022/11/19 07:26:41;;;;;;;2.50;2.20;;;12.60;65.20;;;;;;5023708;28;20331;-71
2022/11/19 07:29:08;;;;;;;3.28;2.00;;;12.60;65.20;;;;;;5023776;28;20022;-72
2022/11/19 07:31:34;;;;;;;2.78;2.42;;;12.60;65.10;;;;;;5023716;28;20310;-73
2022/11/19 07:34:00;;;;;;;3.20;2.67;;;12.60;65.00;;;;;;5023719;28;20261;-73
2022/11/19 07:36:25;;;;;;;3.65;2.80;;;12.60;65.00;;;;;;5023707;28;20018;-73
2022/11/19 07:38:51;;;;;;;2.80;2.42;;;12.70;65.00;;;;;;5023675;28;20103;-74
2022/11/19 07:44:03;;;;;;;3.20;2.45;;;12.60;64.90;;;;;;5023673;28;20075;-71
2022/11/19 07:46:29;;;;;;;3.17;2.75;;;12.60;64.90;;;;;;5023578;28;20049;-72
2022/11/19 07:48:56;;;;;;;3.85;2.63;;;12.60;64.80;;;;;;5023671;28;20210;-72
2022/11/19 07:51:23;;;;;;;3.25;2.33;;;12.60;64.80;;;;;;5023598;28;20041;-71
2022/11/19 07:53:49;;;;;;;2.92;2.70;;;12.70;64.90;;;;;;5023580;28;20045;-72
2022/11/19 07:56:16;;;;;;;2.80;2.50;;;12.60;64.80;;;;;;5023545;28;20021;-71
2022/11/19 07:58:41;;;;;;;2.67;2.40;;;12.60;64.80;;;;;;5023503;28;20033;-74
2022/11/19 08:01:25;;;;;;;2.80;2.50;;;12.60;64.70;;;;;;5023496;28;20213;-73
2022/11/19 08:03:52;;;;;;;2.28;2.10;;;12.70;64.80;;;;;;5023523;28;20021;-72
2022/11/19 08:06:19;;;;;;;2.95;2.22;;;12.70;64.70;;;;;;5023334;28;20022;-72
2022/11/19 08:08:46;;;;;;;2.38;2.15;;;12.70;64.50;;;;;;5023463;28;20029;-72
2022/11/19 08:11:13;;;;;;;2.53;2.33;;;12.80;64.50;;;;;;5023391;28;20336;-72
2022/11/19 08:13:40;;;;;;;3.38;2.47;;;12.80;64.40;;;;;;5023395;28;20040;-72
2022/11/19 08:16:09;;;;;;;3.03;2.72;;;12.80;64.30;;;;;;5023344;28;20013;-72
2022/11/19 08:18:36;;;;;;;2.50;2.15;;;12.80;64.30;;;;;;5023308;28;20267;-71
2022/11/19 08:21:05;;;;;;;2.83;2.55;;;12.80;64.40;;;;;;5023301;28;20309;-72
2022/11/19 08:23:31;;;;;;;3.42;2.58;;;12.70;64.70;;;;;;5023265;28;20087;-72
2022/11/19 08:25:57;;;;;;;3.00;2.70;;;12.60;64.80;;;;;;5023315;28;20428;-72
2022/11/19 08:28:23;;;;;;;3.13;2.83;;;12.70;65.00;;;;;;5023411;28;20029;-72
2022/11/19 08:30:48;;;;;;;2.78;2.50;;;12.70;65.00;;;;;;5023202;28;20041;-72
2022/11/19 08:33:14;;;;;;;3.22;2.58;;;12.70;64.90;;;;;;5023182;28;20022;-72
2022/11/19 08:35:40;;;;;;;3.75;2.95;;;12.70;64.80;;;;;;5023674;28;20304;-72
2022/11/19 08:38:06;;;;;;;3.00;2.70;;;12.70;64.70;;;;;;5026703;28;20026;-73
2022/11/19 08:40:32;;;;;;;3.60;2.67;;;12.70;64.80;;;;;;5026586;28;20025;-72
2022/11/19 08:43:00;;;;;;;3.30;2.70;;;12.70;64.80;;;;;;5026468;28;20069;-74
2022/11/19 08:45:26;;;;;;;5.03;3.60;;;12.70;65.00;;;;;;5026569;28;20029;-70
2022/11/19 08:47:53;;;;;;;4.10;2.83;;;12.70;65.10;;;;;;5026385;28;20030;-72
2022/11/19 08:50:20;;;;;;;3.05;2.67;;;12.70;65.10;;;;;;5026480;28;20044;-72
2022/11/19 08:52:46;;;;;;;2.75;2.53;;;12.70;64.80;;;;;;5026457;28;20069;-74
2022/11/19 08:55:11;;;;;;;4.22;3.03;;;12.70;65.00;;;;;;5026258;28;20089;-72
2022/11/19 08:57:37;;;;;;;2.67;2.45;;;12.70;64.80;;;;;;5026370;28;20241;-72
2022/11/19 09:00:03;;;;;;;3.97;3.10;;;12.70;64.80;;;;;;5026334;28;20089;-71
2022/11/19 09:02:29;;;;;;;2.97;2.60;;;12.80;64.60;;;;;;5026224;28;20447;-72
2022/11/19 09:04:55;;;;;;;2.83;2.50;;;12.80;64.60;;;;;;5026195;28;20025;-72
2022/11/19 09:07:21;;;;;;;3.47;2.60;;;12.80;64.60;;;;;;5026038;28;20030;-73
2022/11/19 09:09:46;;;;;;;3.08;2.53;;;12.80;64.80;;;;;;5026125;28;20237;-72
2022/11/19 09:12:12;;;;;;;2.97;2.67;;;12.80;64.70;;;;;;5026023;28;20017;-72
2022/11/19 09:14:38;;;;;;;3.42;2.85;;;12.70;64.80;;;;;;5025972;28;20013;-72
2022/11/19 09:17:04;;;;;;;4.38;3.25;;;12.70;64.80;;;;;;5041325;28;20033;-73
2022/11/19 09:19:30;;;;;;;3.80;2.60;;;12.70;64.80;;;;;;5025916;28;20026;-73
2022/11/19 09:21:55;;;;;;;3.00;2.67;;;12.70;64.80;;;;;;5025900;28;20026;-71
2022/11/19 09:24:21;;;;;;;3.20;2.75;;;12.70;64.80;;;;;;5025842;28;20021;-73
2022/11/19 09:26:47;;;;;;;3.08;2.50;;;12.70;64.80;;;;;;5025716;28;20022;-72
2022/11/19 09:29:13;;;;;;;3.42;2.80;;;12.80;64.90;;;;;;5025778;28;20101;-72
2022/11/19 09:31:38;;;;;;;4.35;3.42;;;12.70;64.80;;;;;;5025739;28;20044;-72
2022/11/19 09:34:04;;;;;;;3.60;2.67;;;12.80;64.80;;;;;;5025648;28;20010;-71
2022/11/19 09:36:30;;;;;;;3.78;2.97;;;12.70;64.80;;;;;;5025651;28;20014;-71
2022/11/19 09:38:57;;;;;;;3.78;2.90;;;12.70;64.80;;;;;;5025538;28;20025;-72
2022/11/19 09:41:54;;;;;;;3.40;2.92;;;12.70;64.80;;;;;;5025345;28;20037;-72
2022/11/19 09:44:22;;;;;;;3.90;2.83;;;12.70;64.80;;;;;;5024859;28;20217;-72
2022/11/19 09:47:04;;;;;;;3.45;2.72;;;12.70;64.80;;;;;;5024930;28;20094;-72
2022/11/19 09:49:51;;;;;;;2.45;2.15;;;12.70;64.80;;;;;;5025412;28;20024;-74
2022/11/19 09:52:21;;;;;;;4.65;3.42;;;12.70;64.90;;;;;;5025331;28;20060;-73
2022/11/19 09:54:52;;;;;;;3.00;2.65;;;12.70;64.90;;;;;;5025285;28;20018;-73
2022/11/19 09:57:52;;;;;;;2.95;2.65;;;12.70;64.80;;;;;;5025257;28;20060;-73
2022/11/19 10:00:25;;;;;;;3.38;2.95;;;12.70;64.80;;;;;;5025191;28;20041;-74
2022/11/19 10:02:52;;;;;;;2.83;2.55;;;12.80;64.80;;;;;;5040454;28;20021;-72
2022/11/19 10:05:25;;;;;;;3.85;2.83;;;12.80;64.60;;;;;;5025085;28;20344;-72
2022/11/19 10:08:12;;;;;;;3.63;3.03;;;12.80;64.50;;;;;;5025009;28;20021;-72
2022/11/19 10:10:49;;;;;;;3.15;2.67;;;12.90;64.50;;;;;;5024997;28;20021;-73
2022/11/19 10:13:30;;;;;;;3.33;2.92;;;12.90;64.30;;;;;;5025018;28;20022;-72
2022/11/19 10:16:25;;;;;;;3.20;2.80;;;13.00;64.20;;;;;;5024875;28;20018;-72
2022/11/19 10:19:17;;;;;;;2.88;2.60;;;13.00;64.10;;;;;;5015806;28;20053;-72
2022/11/19 10:22:10;;;;;;;3.10;2.80;;;13.00;64.00;;;;;;5022667;28;20029;-72
2022/11/19 10:24:42;;;;;;;4.25;3.13;;;13.00;64.70;;;;;;5024767;28;20073;-72
2022/11/19 10:27:26;;;;;;;3.85;3.20;;;13.00;64.00;;;;;;5024573;28;20244;-73
2022/11/19 10:29:55;;;;;;;3.85;2.85;;;13.00;64.10;;;;;;5024652;28;20013;-72
2022/11/19 10:32:27;;;;;;;3.28;2.67;;;13.00;64.00;;;;;;5024537;28;20195;-71
2022/11/19 10:34:57;;;;;;;3.25;2.80;;;13.00;64.10;;;;;;5023444;28;20054;-72
2022/11/19 10:37:29;;;;;;;2.97;2.63;;;13.00;64.00;;;;;;5024816;28;20041;-72
2022/11/19 10:39:58;;;;;;;3.28;2.95;;;13.00;64.10;;;;;;5024530;28;20364;-71
2022/11/19 10:42:25;;;;;;;;;;;13.00;64.40;;;;;;5024623;28;20057;-73
2022/11/19 10:45:17;;;;;;;4.63;3.58;;;12.90;64.50;;;;;;5024372;28;19924;-73
2022/11/19 10:47:46;;;;;;;2.65;2.22;;;12.90;64.60;;;;;;5024297;28;20255;-71
2022/11/19 10:50:18;;;;;;;3.22;2.92;;;12.80;64.60;;;;;;5024262;28;20013;-73
2022/11/19 10:53:26;;;;;;;4.03;3.08;;;12.80;64.60;;;;;;5024263;28;20041;-74
2022/11/19 10:56:00;;;;;;;4.30;2.90;;;12.90;64.70;;;;;;5024099;28;20025;-73
2022/11/19 10:58:35;;;;;;;3.35;2.60;;;12.90;64.60;;;;;;5022331;28;20022;-72
2022/11/19 11:01:04;;;;;;;3.20;2.63;;;13.00;64.60;;;;;;5024135;28;20025;-71
2022/11/19 11:03:42;;;;;;;3.95;2.90;;;12.90;64.60;;;;;;5024111;28;20032;-73
2022/11/19 11:06:09;;;;;;;4.07;3.17;;;12.90;64.70;;;;;;5024099;28;20030;-72
2022/11/19 11:08:52;;;;;;;3.92;3.05;;;12.80;64.90;;;;;;5023978;28;20018;-72
2022/11/19 11:17:28;;;;;;;4.43;2.95;;;12.70;65.20;;;;;;5023942;28;20079;-72
2022/11/19 11:19:58;;;;;;;3.05;2.60;;;12.70;65.20;;;;;;5023891;28;20028;-73
2022/11/19 11:22:25;;;;;;;2.97;2.58;;;12.70;65.40;;;;;;5023876;28;20032;-74
2022/11/19 11:24:52;;;;;;;4.00;2.75;;;12.70;65.50;;;;;;5022693;28;20018;-72
2022/11/19 11:27:30;;;;;;;4.13;2.80;;;12.70;65.50;;;;;;5023719;28;20026;-72
2022/11/19 11:30:16;;;;;;;2.72;2.50;;;12.70;65.50;;;;;;5023823;28;20040;-72
2022/11/19 11:32:42;;;;;;;3.47;3.13;;;12.70;65.40;;;;;;5023795;28;20093;-72
2022/11/19 11:35:33;;;;;;;3.85;2.80;;;12.70;65.20;;;;;;5023652;28;20409;-71
2022/11/19 11:38:00;;;;;;;3.60;2.90;;;12.70;65.30;;;;;;5024027;28;20205;-72
2022/11/19 11:40:26;;;;;;;3.35;2.58;;;12.70;65.50;;;;;;5023705;28;20022;-72
2022/11/19 11:42:53;;;;;;;3.20;2.47;;;12.70;65.50;;;;;;5023540;28;20050;-72
2022/11/19 11:45:24;;;;;;;4.22;3.28;;;12.70;65.50;;;;;;5023663;28;20041;-72
2022/11/19 11:47:50;;;;;;;4.15;3.00;;;12.70;65.40;;;;;;5023551;28;20022;-72
2022/11/19 11:50:23;;;;;;;3.50;2.83;;;12.70;65.30;;;;;;5023599;28;20328;-72
2022/11/19 11:52:52;;;;;;;2.75;2.47;;;12.70;65.30;;;;;;5023634;28;20018;-72
2022/11/19 11:55:24;;;;;;;;;;;12.70;65.40;;;;;;5023949;28;20309;-72
2022/11/19 11:57:55;;;;;;;2.90;2.60;;;12.70;65.30;;;;;;5023537;28;19901;-72
2022/11/19 12:00:41;;;;;;;3.28;2.97;;;12.70;65.30;;;;;;5022430;28;20022;-72
2022/11/19 12:03:12;;;;;;;3.42;2.60;;;12.70;65.10;;;;;;5023492;28;20028;-72
2022/11/19 12:06:03;;;;;;;3.17;2.67;;;12.70;65.20;;;;;;5023548;28;20021;-72
2022/11/19 12:08:56;;;;;;;3.75;3.08;;;12.70;65.00;;;;;;5023459;28;20085;-72
2022/11/19 12:11:55;;;;;;;3.20;2.72;;;12.70;65.10;;;;;;5026675;28;20029;-73
2022/11/19 12:14:57;;;;;;;3.97;3.40;;;12.70;65.20;;;;;;5026706;28;20018;-72
2022/11/19 12:17:36;;;;;;;2.67;2.47;;;12.80;64.80;;;;;;5027159;28;20022;-73
2022/11/19 12:20:15;;;;;;;3.63;3.20;;;12.90;64.60;;;;;;5027115;28;20018;-72
2022/11/19 12:22:48;;;;;;;3.22;2.65;;;12.90;64.40;;;;;;5027065;28;20068;-72
2022/11/19 12:25:30;;;;;;;2.58;2.33;;;12.90;64.30;;;;;;5026984;28;20045;-72
2022/11/19 12:28:53;;;;;;;3.70;2.88;;;13.00;64.20;;;;;;5026917;28;20258;-72
2022/11/19 12:31:22;;;;;;;4.00;2.72;;;13.10;64.00;;;;;;4985952;28;20334;-72
2022/11/19 12:34:38;;;;;;;3.22;2.67;;;13.00;64.30;;;;;;4985938;28;20302;-72
2022/11/19 12:37:26;;;;;;;3.33;2.80;;;13.00;64.20;;;;;;4983814;28;20304;-72
2022/11/19 12:40:15;;;;;;;3.15;2.80;;;13.10;64.00;;;;;;4996756;28;20101;-71
2022/11/19 12:43:12;;;;;;;3.05;2.75;;;13.10;64.00;;;;;;5026553;28;20065;-72
2022/11/19 12:45:52;;;;;;;3.05;2.67;;;13.10;64.10;;;;;;5026656;28;20018;-73
2022/11/19 12:48:24;;;;;;;3.42;2.92;;;13.10;64.00;;;;;;5026512;28;20018;-73
2022/11/19 12:51:13;;;;;;;3.30;3.00;;;13.00;64.20;;;;;;5026459;28;20029;-73
2022/11/19 12:54:10;;;;;;;3.25;2.90;;;13.00;64.10;;;;;;5026439;28;20045;-72
2022/11/19 12:57:01;;;;;;;3.85;3.30;;;13.10;64.00;;;;;;5023238;28;20085;-73
2022/11/19 12:59:44;;;;;;;3.03;2.72;;;13.30;63.50;;;;;;5026327;28;20026;-72
2022/11/19 13:02:20;;;;;;;2.75;2.28;;;13.40;63.10;;;;;;5026313;28;20014;-73
2022/11/19 13:05:00;;;;;;;2.85;2.58;;;13.50;62.80;;;;;;5026266;28;20018;-72
2022/11/19 13:07:40;;;;;;;4.50;2.83;;;13.40;62.80;;;;;;5026175;28;20025;-73
2022/11/19 13:10:12;;;;;;;3.70;3.17;;;13.30;63.10;;;;;;5041467;28;20060;-72
2022/11/19 13:12:45;;;;;;;3.58;2.80;;;13.30;63.50;;;;;;5026105;28;20010;-73
2022/11/19 13:15:28;;;;;;;3.40;3.10;;;13.30;63.50;;;;;;5026046;28;20022;-73
2022/11/19 13:17:57;;;;;;;3.40;2.72;;;13.30;63.40;;;;;;5026013;28;20017;-72
2022/11/19 13:20:38;;;;;;;3.72;3.05;;;13.50;62.90;;;;;;5025951;28;20021;-73
2022/11/19 13:23:06;;;;;;;3.42;2.70;;;13.70;62.20;;;;;;5025113;28;20033;-72
2022/11/19 13:25:45;;;;;;;2.78;2.55;;;13.90;61.70;;;;;;5025889;28;20028;-72
2022/11/19 13:28:28;;;;;;;4.28;2.67;;;13.80;61.70;;;;;;5025802;28;20014;-73
2022/11/19 13:31:00;;;;;;;3.25;2.70;;;13.80;61.80;;;;;;5025830;28;20238;-72
2022/11/19 13:33:51;;;;;;;3.55;2.67;;;13.60;62.50;;;;;;5025726;28;20266;-73
2022/11/19 13:36:21;;;;;;;3.30;2.65;;;13.40;63.20;;;;;;5006429;28;20328;-72
2022/11/19 13:39:05;;;;;;;3.92;2.97;;;13.20;63.70;;;;;;5025657;28;20026;-72
2022/11/19 13:44:37;;;;;;;2.90;2.53;;;13.10;64.10;;;;;;5025357;28;20237;-72